Time;durP1;ratioP1;P1;durP2;ratioP2;P2;SDS_P1;SDS_P2;PMS_P1;PMS_P2;Temp;Humidity;BMP_temperature;BMP_pressure;BME280_temperature;BME280_humidity;BME280_pressure;Samples;Min_cycle;Max_cycle;Signal;HPM_P1;HPM_P2
2022/03/28 00:02:02;;;;;;;;;11.75;11.25;;;;;;;;5095306;27;45469;-71
2022/03/28 00:04:27;;;;;;;;;13.00;12.00;;;;;;;;5094420;27;45488;-71
2022/03/28 00:06:52;;;;;;;;;12.50;10.25;;;;;;;;5095861;27;45369;-71
2022/03/28 00:09:17;;;;;;;;;10.75;9.75;;;;;;;;5096696;27;46100;-72
2022/03/28 00:11:43;;;;;;;;;10.75;10.00;;;;;;;;5097298;27;45427;-71
2022/03/28 00:14:08;;;;;;;;;11.75;11.25;;;;;;;;5096575;27;45354;-71
2022/03/28 00:16:34;;;;;;;;;11.00;9.25;;;;;;;;5095590;27;45390;-71
2022/03/28 00:18:59;;;;;;;;;12.00;12.00;;;;;;;;5094829;27;47908;-71
2022/03/28 00:21:25;;;;;;;;;9.00;7.25;;;;;;;;5096882;27;45310;-71
2022/03/28 00:23:51;;;;;;;;;13.25;11.50;;;;;;;;5094347;27;45235;-71
2022/03/28 00:26:16;;;;;;;;;11.75;10.00;;;;;;;;5095139;27;45652;-71
2022/03/28 00:28:41;;;;;;;;;11.50;10.50;;;;;;;;5095049;27;46111;-71
2022/03/28 00:31:07;;;;;;;;;9.75;8.00;;;;;;;;5095375;27;45215;-71
2022/03/28 00:33:32;;;;;;;;;11.50;11.50;;;;;;;;5094113;27;45378;-71
2022/03/28 00:35:57;;;;;;;;;12.00;10.50;;;;;;;;5095569;27;45376;-71
2022/03/28 00:38:23;;;;;;;;;12.50;11.75;;;;;;;;5097859;27;46159;-71
2022/03/28 00:40:48;;;;;;;;;10.50;10.50;;;;;;;;5093598;27;45250;-72
2022/03/28 00:43:14;;;;;;;;;9.50;9.50;;;;;;;;5093847;27;45267;-71
2022/03/28 00:45:40;;;;;;;;;8.25;8.25;;;;;;;;5095282;27;45643;-71
2022/03/28 00:48:05;;;;;;;;;11.25;11.25;;;;;;;;5095447;27;45312;-71
2022/03/28 00:50:32;;;;;;;;;11.00;11.00;;;;;;;;5097452;27;45356;-71
2022/03/28 00:52:57;;;;;;;;;13.25;11.50;;;;;;;;5093960;27;49195;-71
2022/03/28 00:55:23;;;;;;;;;13.75;12.25;;;;;;;;5093398;27;45589;-71
2022/03/28 00:57:48;;;;;;;;;14.75;11.50;;;;;;;;5094438;27;46600;-71
2022/03/28 01:00:13;;;;;;;;;12.00;10.50;;;;;;;;5093235;27;45382;-71
2022/03/28 01:02:39;;;;;;;;;10.00;10.00;;;;;;;;5097691;27;45380;-72
2022/03/28 01:05:04;;;;;;;;;11.25;9.50;;;;;;;;5094523;27;45511;-71
2022/03/28 01:07:29;;;;;;;;;11.75;10.75;;;;;;;;5093116;27;45461;-71
2022/03/28 01:09:56;;;;;;;;;12.75;9.75;;;;;;;;5093434;27;45381;-71
2022/03/28 01:12:30;;;;;;;;;11.75;10.25;;;;;;;;5092431;27;45386;-71
2022/03/28 01:14:55;;;;;;;;;11.25;9.75;;;;;;;;5094382;27;46604;-71
2022/03/28 01:20:06;;;;;;;;;10.00;8.75;;;;;;;;5093313;27;45289;-71
2022/03/28 01:22:31;;;;;;;;;10.75;10.25;;;;;;;;5094757;27;45458;-71
2022/03/28 01:24:59;;;;;;;;;11.00;10.25;;;;;;;;5094492;27;45391;-71
2022/03/28 01:27:24;;;;;;;;;11.00;10.25;;;;;;;;5094687;27;46339;-71
2022/03/28 01:29:50;;;;;;;;;16.25;12.25;;;;;;;;5095181;27;45513;-71
2022/03/28 01:32:15;;;;;;;;;12.25;10.00;;;;;;;;5094687;27;45330;-71
2022/03/28 01:34:41;;;;;;;;;11.00;10.50;;;;;;;;5093419;27;45632;-71
2022/03/28 01:37:06;;;;;;;;;12.50;11.00;;;;;;;;5092214;27;45541;-71
2022/03/28 01:39:31;;;;;;;;;13.50;12.25;;;;;;;;5094487;27;45563;-71
2022/03/28 01:41:56;;;;;;;;;11.25;11.25;;;;;;;;5095800;27;45391;-71
2022/03/28 01:44:22;;;;;;;;;12.75;12.00;;;;;;;;5096469;27;45349;-71
2022/03/28 01:46:47;;;;;;;;;12.00;10.25;;;;;;;;5094061;27;45528;-71
2022/03/28 01:49:13;;;;;;;;;8.00;8.00;;;;;;;;5094267;27;45471;-71
2022/03/28 01:51:38;;;;;;;;;12.50;10.00;;;;;;;;5091221;27;45505;-72
2022/03/28 01:54:04;;;;;;;;;14.00;13.00;;;;;;;;5093375;27;45505;-71
2022/03/28 01:56:29;;;;;;;;;11.00;11.00;;;;;;;;5095721;27;45964;-71
2022/03/28 01:58:54;;;;;;;;;10.25;10.25;;;;;;;;5091954;27;45554;-71
2022/03/28 02:01:19;;;;;;;;;12.50;11.75;;;;;;;;5091905;27;45520;-71
2022/03/28 02:03:44;;;;;;;;;12.25;10.25;;;;;;;;5094152;27;45549;-71
2022/03/28 02:06:10;;;;;;;;;14.00;10.25;;;;;;;;5093999;27;46370;-71
2022/03/28 02:08:35;;;;;;;;;10.75;10.75;;;;;;;;5096387;27;45499;-71
2022/03/28 02:11:01;;;;;;;;;11.50;11.50;;;;;;;;5093808;27;45347;-71
2022/03/28 02:13:26;;;;;;;;;12.00;10.25;;;;;;;;5092088;27;45472;-71
2022/03/28 02:15:51;;;;;;;;;11.00;10.25;;;;;;;;5094097;27;45402;-71
2022/03/28 02:18:16;;;;;;;;;13.75;10.50;;;;;;;;5093828;27;45481;-72
2022/03/28 02:20:42;;;;;;;;;13.50;11.00;;;;;;;;5095997;27;45333;-71
2022/03/28 02:23:07;;;;;;;;;12.50;10.25;;;;;;;;5094776;27;45493;-71
2022/03/28 02:25:36;;;;;;;;;13.00;13.00;;;;;;;;5097382;27;46024;-71
2022/03/28 02:28:02;;;;;;;;;12.00;12.00;;;;;;;;5096731;27;45338;-71
2022/03/28 02:30:27;;;;;;;;;9.75;8.50;;;;;;;;5096734;27;45725;-71
2022/03/28 02:32:52;;;;;;;;;13.50;11.25;;;;;;;;5097989;27;45415;-71
2022/03/28 02:35:17;;;;;;;;;12.50;12.50;;;;;;;;5088007;27;45540;-71
2022/03/28 02:37:43;;;;;;;;;11.00;11.00;;;;;;;;5094225;27;45450;-71
2022/03/28 02:40:08;;;;;;;;;13.00;11.50;;;;;;;;5097664;27;45843;-71
2022/03/28 02:42:34;;;;;;;;;9.75;9.75;;;;;;;;5095566;27;45455;-71
2022/03/28 02:44:59;;;;;;;;;12.00;12.00;;;;;;;;5097397;27;45316;-71
2022/03/28 02:47:24;;;;;;;;;9.25;9.25;;;;;;;;5098070;27;45365;-71
2022/03/28 02:49:50;;;;;;;;;9.25;9.25;;;;;;;;5095734;27;45424;-71
2022/03/28 02:52:15;;;;;;;;;12.75;12.75;;;;;;;;5096266;27;45374;-71
2022/03/28 02:54:41;;;;;;;;;14.00;11.75;;;;;;;;5090590;27;45795;-71
2022/03/28 02:57:06;;;;;;;;;10.25;10.25;;;;;;;;5096844;27;45311;-71
2022/03/28 02:59:31;;;;;;;;;11.75;11.75;;;;;;;;5099251;27;45232;-71
2022/03/28 03:01:57;;;;;;;;;14.25;11.00;;;;;;;;5097103;27;45315;-71
2022/03/28 03:04:22;;;;;;;;;10.75;9.50;;;;;;;;5097579;27;45798;-71
2022/03/28 03:06:47;;;;;;;;;13.50;11.50;;;;;;;;5096377;27;45609;-71
2022/03/28 03:09:12;;;;;;;;;12.75;11.50;;;;;;;;5095114;27;45261;-71
2022/03/28 03:11:40;;;;;;;;;13.00;10.25;;;;;;;;5098628;27;45303;-71
2022/03/28 03:14:05;;;;;;;;;9.00;8.25;;;;;;;;5094791;27;47219;-71
2022/03/28 03:16:30;;;;;;;;;10.50;9.75;;;;;;;;5095355;27;45639;-71
2022/03/28 03:18:56;;;;;;;;;13.00;10.75;;;;;;;;5097807;27;45632;-71
2022/03/28 03:21:21;;;;;;;;;12.75;11.25;;;;;;;;5095722;27;45556;-71
2022/03/28 03:23:46;;;;;;;;;9.00;9.00;;;;;;;;5098229;27;45498;-71
2022/03/28 03:26:11;;;;;;;;;11.25;10.00;;;;;;;;5096974;27;45308;-71
2022/03/28 03:28:36;;;;;;;;;9.75;9.00;;;;;;;;5096838;27;45342;-71
2022/03/28 03:31:02;;;;;;;;;13.25;13.00;;;;;;;;5096419;27;45469;-71
2022/03/28 03:33:27;;;;;;;;;12.75;12.00;;;;;;;;5095713;27;45912;-71
2022/03/28 03:35:53;;;;;;;;;10.50;8.00;;;;;;;;5096631;27;46016;-72
2022/03/28 03:38:19;;;;;;;;;11.25;11.25;;;;;;;;5098465;27;45498;-71
2022/03/28 03:40:44;;;;;;;;;10.50;10.50;;;;;;;;5095869;27;45571;-71
2022/03/28 03:43:09;;;;;;;;;16.25;12.25;;;;;;;;5095297;27;46082;-71
2022/03/28 03:45:35;;;;;;;;;12.50;10.25;;;;;;;;5097222;27;45517;-71
2022/03/28 03:48:00;;;;;;;;;12.00;11.00;;;;;;;;5097944;27;45531;-71
2022/03/28 03:50:25;;;;;;;;;11.75;11.00;;;;;;;;5098690;27;45209;-71
2022/03/28 03:52:51;;;;;;;;;11.25;11.25;;;;;;;;5097627;27;47135;-71
2022/03/28 03:55:17;;;;;;;;;12.50;11.00;;;;;;;;5097760;27;45439;-71
2022/03/28 03:57:42;;;;;;;;;12.25;11.50;;;;;;;;5097272;27;45370;-71
2022/03/28 04:00:08;;;;;;;;;14.00;11.50;;;;;;;;5094407;27;45335;-71
2022/03/28 04:02:34;;;;;;;;;13.25;11.00;;;;;;;;5094367;27;45938;-71
2022/03/28 04:04:59;;;;;;;;;13.75;12.25;;;;;;;;5093134;27;45338;-71
2022/03/28 04:07:24;;;;;;;;;11.50;10.00;;;;;;;;5096180;27;45322;-71
2022/03/28 04:09:49;;;;;;;;;11.25;10.50;;;;;;;;5094293;27;45484;-71
2022/03/28 04:12:15;;;;;;;;;11.25;9.00;;;;;;;;5095629;27;45983;-71
2022/03/28 04:14:40;;;;;;;;;11.00;10.25;;;;;;;;5097963;27;45310;-73
2022/03/28 04:17:05;;;;;;;;;11.00;10.00;;;;;;;;5094649;27;45303;-71
2022/03/28 04:19:30;;;;;;;;;10.50;10.50;;;;;;;;5095693;27;45506;-71
2022/03/28 04:21:55;;;;;;;;;11.25;11.25;;;;;;;;5093424;27;46241;-70
2022/03/28 04:24:21;;;;;;;;;10.75;10.00;;;;;;;;5095528;27;45406;-70
2022/03/28 04:26:46;;;;;;;;;11.50;11.00;;;;;;;;5097561;27;45314;-71
2022/03/28 04:29:11;;;;;;;;;7.50;5.75;;;;;;;;5095618;27;45464;-71
2022/03/28 04:31:40;;;;;;;;;12.75;10.25;;;;;;;;5094542;27;46208;-70
2022/03/28 04:34:06;;;;;;;;;9.50;9.50;;;;;;;;5095850;27;45386;-71
2022/03/28 04:36:31;;;;;;;;;11.25;11.00;;;;;;;;5096028;27;45334;-71
2022/03/28 04:38:57;;;;;;;;;12.50;11.75;;;;;;;;5096737;27;45271;-70
2022/03/28 04:41:22;;;;;;;;;14.00;12.00;;;;;;;;5097455;27;45392;-71
2022/03/28 04:43:47;;;;;;;;;10.50;10.25;;;;;;;;5095272;27;45433;-71
2022/03/28 04:46:12;;;;;;;;;10.50;9.00;;;;;;;;5093005;27;45242;-71
2022/03/28 04:48:37;;;;;;;;;11.25;10.25;;;;;;;;5093366;27;45298;-71
2022/03/28 04:51:03;;;;;;;;;12.25;12.25;;;;;;;;5093678;27;45578;-70
2022/03/28 04:53:28;;;;;;;;;13.00;11.75;;;;;;;;5096016;27;45263;-71
2022/03/28 04:55:53;;;;;;;;;10.75;9.25;;;;;;;;5093482;27;45263;-70
2022/03/28 04:58:18;;;;;;;;;4.50;4.50;;;;;;;;5093372;27;45276;-70
2022/03/28 05:00:43;;;;;;;;;10.50;9.25;;;;;;;;5094878;27;46302;-70
2022/03/28 05:03:09;;;;;;;;;10.75;10.50;;;;;;;;5094163;27;45276;-71
2022/03/28 05:05:34;;;;;;;;;12.75;11.50;;;;;;;;5096972;27;45297;-70
2022/03/28 05:07:59;;;;;;;;;12.25;11.75;;;;;;;;5094767;27;45500;-71
2022/03/28 05:10:24;;;;;;;;;9.75;9.75;;;;;;;;5092430;27;46081;-70
2022/03/28 05:12:50;;;;;;;;;11.75;11.50;;;;;;;;5092222;27;46012;-71
2022/03/28 05:15:15;;;;;;;;;12.00;9.00;;;;;;;;5095176;27;45424;-70
2022/03/28 05:17:40;;;;;;;;;12.25;11.75;;;;;;;;5096607;27;45368;-71
2022/03/28 05:20:08;;;;;;;;;14.00;11.75;;;;;;;;5093020;27;45486;-71
2022/03/28 05:22:33;;;;;;;;;11.25;10.00;;;;;;;;5092250;27;45384;-70
2022/03/28 05:24:58;;;;;;;;;9.75;9.75;;;;;;;;5094712;27;45377;-70
2022/03/28 05:27:24;;;;;;;;;10.50;9.00;;;;;;;;5094852;27;45501;-70
2022/03/28 05:29:49;;;;;;;;;10.25;8.50;;;;;;;;5096033;27;45635;-70
2022/03/28 05:32:14;;;;;;;;;10.75;10.75;;;;;;;;5095969;27;45481;-72
2022/03/28 05:34:39;;;;;;;;;13.50;12.00;;;;;;;;5092347;27;45402;-71
2022/03/28 05:37:06;;;;;;;;;11.25;10.00;;;;;;;;5093875;27;45555;-70
2022/03/28 05:39:34;;;;;;;;;10.00;9.00;;;;;;;;5094496;27;46122;-70
2022/03/28 05:42:00;;;;;;;;;12.75;11.00;;;;;;;;5094741;27;45314;-68
2022/03/28 05:44:25;;;;;;;;;10.75;10.75;;;;;;;;5095159;27;45303;-70
2022/03/28 05:46:51;;;;;;;;;14.25;9.75;;;;;;;;5093304;27;45291;-67
2022/03/28 05:49:16;;;;;;;;;8.50;8.25;;;;;;;;5093186;27;46223;-72
2022/03/28 05:51:42;;;;;;;;;11.25;11.00;;;;;;;;5092640;27;45428;-68
2022/03/28 05:54:07;;;;;;;;;12.75;11.00;;;;;;;;5087332;27;46690;-67
2022/03/28 05:56:32;;;;;;;;;10.25;9.50;;;;;;;;5092387;27;45451;-67
2022/03/28 05:58:57;;;;;;;;;11.75;11.75;;;;;;;;5091062;27;46615;-67
2022/03/28 06:01:23;;;;;;;;;12.00;9.50;;;;;;;;5088091;27;45488;-68
2022/03/28 06:03:48;;;;;;;;;9.00;9.00;;;;;;;;5086473;27;45380;-67
2022/03/28 06:06:13;;;;;;;;;10.50;10.50;;;;;;;;5093586;27;45470;-68
2022/03/28 06:08:39;;;;;;;;;11.00;9.75;;;;;;;;5094476;27;46097;-68
2022/03/28 06:11:04;;;;;;;;;9.50;9.50;;;;;;;;5087839;27;45496;-68
2022/03/28 06:13:32;;;;;;;;;12.00;11.75;;;;;;;;5086787;27;45383;-66
2022/03/28 06:16:02;;;;;;;;;9.00;9.00;;;;;;;;5093695;27;45517;-67
2022/03/28 06:18:27;;;;;;;;;8.50;8.50;;;;;;;;5093335;27;47161;-68
2022/03/28 06:20:53;;;;;;;;;14.00;11.50;;;;;;;;5093772;27;45563;-68
2022/03/28 06:23:18;;;;;;;;;10.50;9.75;;;;;;;;5095726;27;45500;-67
2022/03/28 06:25:43;;;;;;;;;9.25;9.25;;;;;;;;5093358;27;45409;-67
2022/03/28 06:28:10;;;;;;;;;11.25;10.00;;;;;;;;5092097;27;45455;-67
2022/03/28 06:30:35;;;;;;;;;12.00;11.25;;;;;;;;5093572;27;45350;-67
2022/03/28 06:33:01;;;;;;;;;12.25;8.75;;;;;;;;5093151;27;45280;-69
2022/03/28 06:35:26;;;;;;;;;11.75;10.25;;;;;;;;5096078;27;45294;-67
2022/03/28 06:37:52;;;;;;;;;10.50;10.25;;;;;;;;5094575;27;45469;-67
2022/03/28 06:40:17;;;;;;;;;11.75;9.75;;;;;;;;5093324;27;45640;-67
2022/03/28 06:42:43;;;;;;;;;10.50;10.50;;;;;;;;5094463;27;45496;-67
2022/03/28 06:45:10;;;;;;;;;10.50;8.00;;;;;;;;5093791;27;45549;-67
2022/03/28 06:47:35;;;;;;;;;11.00;8.50;;;;;;;;5095139;27;47243;-67
2022/03/28 06:50:00;;;;;;;;;9.75;8.75;;;;;;;;5093074;27;45576;-68
2022/03/28 06:52:25;;;;;;;;;9.75;8.00;;;;;;;;5090129;27;45363;-67
2022/03/28 06:54:50;;;;;;;;;13.00;10.00;;;;;;;;5090900;27;45360;-68
2022/03/28 06:57:16;;;;;;;;;12.50;10.75;;;;;;;;5091173;27;46679;-67
2022/03/28 06:59:41;;;;;;;;;12.50;11.50;;;;;;;;5094727;27;45572;-68
2022/03/28 07:02:06;;;;;;;;;11.75;9.75;;;;;;;;5091532;27;45521;-68
2022/03/28 07:04:31;;;;;;;;;10.50;10.50;;;;;;;;5091395;27;45400;-67
2022/03/28 07:06:57;;;;;;;;;10.75;10.25;;;;;;;;5090750;27;46112;-67
2022/03/28 07:09:22;;;;;;;;;9.50;6.50;;;;;;;;5092675;27;45415;-67
2022/03/28 07:11:47;;;;;;;;;10.00;9.00;;;;;;;;5098520;27;45264;-67
2022/03/28 07:14:12;;;;;;;;;10.25;9.00;;;;;;;;5095444;27;45440;-67
2022/03/28 07:16:38;;;;;;;;;10.00;9.00;;;;;;;;5095875;27;46288;-68
2022/03/28 07:19:03;;;;;;;;;14.00;10.75;;;;;;;;5096266;27;45340;-67
2022/03/28 07:21:28;;;;;;;;;12.00;11.00;;;;;;;;5096917;27;45272;-67
2022/03/28 07:23:53;;;;;;;;;15.75;11.00;;;;;;;;5098292;27;45373;-68
2022/03/28 07:26:20;;;;;;;;;12.00;11.25;;;;;;;;5098453;27;46276;-67
2022/03/28 07:28:45;;;;;;;;;11.50;10.75;;;;;;;;5096165;27;45466;-67
2022/03/28 07:31:10;;;;;;;;;12.00;10.00;;;;;;;;5094461;27;45466;-67
2022/03/28 07:33:39;;;;;;;;;12.25;10.50;;;;;;;;5096549;27;45434;-67
2022/03/28 07:36:05;;;;;;;;;9.25;9.00;;;;;;;;5095921;27;45452;-67
2022/03/28 07:38:30;;;;;;;;;7.75;6.50;;;;;;;;5097451;27;45323;-67
2022/03/28 07:40:55;;;;;;;;;10.75;8.25;;;;;;;;5096257;27;45479;-67
2022/03/28 07:43:20;;;;;;;;;14.00;12.50;;;;;;;;5094647;27;45443;-68
2022/03/28 07:45:46;;;;;;;;;12.00;11.00;;;;;;;;5095837;27;45905;-67
2022/03/28 07:48:11;;;;;;;;;14.00;9.50;;;;;;;;5094970;27;45622;-67
2022/03/28 07:50:37;;;;;;;;;12.00;10.50;;;;;;;;5094173;27;45451;-67
2022/03/28 07:53:03;;;;;;;;;10.25;9.25;;;;;;;;5095899;27;45610;-67
2022/03/28 07:55:28;;;;;;;;;13.25;9.25;;;;;;;;5094219;27;47052;-67
2022/03/28 07:57:54;;;;;;;;;11.00;9.75;;;;;;;;5093821;27;45699;-69
2022/03/28 08:00:19;;;;;;;;;10.50;10.50;;;;;;;;5095709;27;45589;-67
2022/03/28 08:02:45;;;;;;;;;11.00;9.50;;;;;;;;5097218;27;45272;-67
2022/03/28 08:05:10;;;;;;;;;10.50;10.25;;;;;;;;5094207;27;47073;-67
2022/03/28 08:07:36;;;;;;;;;9.50;9.00;;;;;;;;5091374;27;45505;-67
2022/03/28 08:10:02;;;;;;;;;12.25;10.00;;;;;;;;5087493;27;45350;-68
2022/03/28 08:12:28;;;;;;;;;12.50;11.75;;;;;;;;5096038;27;45239;-67
2022/03/28 08:14:53;;;;;;;;;13.00;10.00;;;;;;;;5096064;27;47144;-67
2022/03/28 08:17:19;;;;;;;;;12.75;11.00;;;;;;;;5095511;27;45507;-67
2022/03/28 08:19:44;;;;;;;;;12.00;11.00;;;;;;;;5094692;27;45406;-67
2022/03/28 08:22:09;;;;;;;;;8.75;8.75;;;;;;;;5095668;27;45477;-67
2022/03/28 08:24:35;;;;;;;;;14.50;11.75;;;;;;;;5094999;27;45479;-67
2022/03/28 08:27:00;;;;;;;;;12.75;11.50;;;;;;;;5095492;27;45503;-67
2022/03/28 08:29:25;;;;;;;;;14.50;10.75;;;;;;;;5097345;27;45370;-67
2022/03/28 08:31:51;;;;;;;;;11.50;10.00;;;;;;;;5095371;27;45480;-67
2022/03/28 08:34:18;;;;;;;;;11.00;10.25;;;;;;;;5094760;27;45376;-67
2022/03/28 08:36:43;;;;;;;;;12.50;10.25;;;;;;;;5095384;27;45457;-67
2022/03/28 08:39:09;;;;;;;;;8.00;7.00;;;;;;;;5095234;27;45337;-67
2022/03/28 08:41:34;;;;;;;;;11.75;10.50;;;;;;;;5097512;27;45518;-67
2022/03/28 08:44:00;;;;;;;;;12.00;11.00;;;;;;;;5094592;27;47373;-68
2022/03/28 08:46:27;;;;;;;;;10.50;10.50;;;;;;;;5095188;27;45295;-67
2022/03/28 08:48:53;;;;;;;;;10.25;9.50;;;;;;;;5093360;27;45314;-69
2022/03/28 08:51:19;;;;;;;;;10.00;8.00;;;;;;;;5096479;27;45421;-68
2022/03/28 08:53:45;;;;;;;;;11.00;10.75;;;;;;;;5096048;27;46458;-67
2022/03/28 08:56:12;;;;;;;;;11.75;11.50;;;;;;;;5095876;27;45371;-67
2022/03/28 08:58:37;;;;;;;;;10.75;10.50;;;;;;;;5094129;27;45493;-67
2022/03/28 09:01:04;;;;;;;;;13.50;10.50;;;;;;;;5092899;27;45389;-67
2022/03/28 09:03:39;;;;;;;;;10.75;8.00;;;;;;;;5093303;27;46308;-67
2022/03/28 09:06:23;;;;;;;;;13.25;11.25;;;;;;;;5094775;27;45379;-67
2022/03/28 09:08:48;;;;;;;;;12.75;12.00;;;;;;;;5094895;27;45418;-68
2022/03/28 09:11:20;;;;;;;;;11.00;9.75;;;;;;;;5095794;27;45516;-67
2022/03/28 09:13:45;;;;;;;;;11.50;10.25;;;;;;;;5094517;27;45543;-67
2022/03/28 09:16:17;;;;;;;;;12.25;9.25;;;;;;;;5094360;27;45391;-67
2022/03/28 09:18:43;;;;;;;;;12.00;11.50;;;;;;;;5092459;27;45292;-67
2022/03/28 09:21:11;;;;;;;;;10.00;10.00;;;;;;;;5092929;27;45522;-66
2022/03/28 09:23:38;;;;;;;;;14.50;12.00;;;;;;;;5096502;27;45407;-67
2022/03/28 09:26:07;;;;;;;;;12.50;11.00;;;;;;;;5094536;27;45432;-67
2022/03/28 09:28:48;;;;;;;;;9.25;9.25;;;;;;;;5094160;27;45337;-67
2022/03/28 09:31:16;;;;;;;;;12.00;10.75;;;;;;;;5093893;27;45507;-67
2022/03/28 09:33:50;;;;;;;;;11.50;11.50;;;;;;;;5087183;27;46187;-67
2022/03/28 09:36:15;;;;;;;;;14.00;10.50;;;;;;;;5081306;27;45432;-67
2022/03/28 09:38:54;;;;;;;;;3.75;2.25;;;;;;;;5096854;27;45433;-67
2022/03/28 09:41:22;;;;;;;;;13.50;9.50;;;;;;;;5096267;27;45515;-69
2022/03/28 09:43:52;;;;;;;;;14.25;11.25;;;;;;;;5094905;27;46258;-67
2022/03/28 09:46:24;;;;;;;;;11.00;9.50;;;;;;;;5094200;27;45468;-67
2022/03/28 09:48:49;;;;;;;;;12.75;10.25;;;;;;;;5094392;27;45346;-67
2022/03/28 09:51:16;;;;;;;;;12.50;10.00;;;;;;;;5092740;27;45378;-67
2022/03/28 09:53:41;;;;;;;;;13.25;11.75;;;;;;;;5096037;27;46959;-68
2022/03/28 09:56:07;;;;;;;;;10.25;8.75;;;;;;;;5091805;27;45409;-67
2022/03/28 09:58:44;;;;;;;;;10.50;9.50;;;;;;;;5087261;27;45645;-67
2022/03/28 10:01:15;;;;;;;;;10.00;9.00;;;;;;;;5086184;27;45623;-67
2022/03/28 10:03:40;;;;;;;;;11.25;9.25;;;;;;;;5093838;27;46210;-67
2022/03/28 10:06:06;;;;;;;;;11.50;11.00;;;;;;;;5093961;27;45233;-67
2022/03/28 10:08:33;;;;;;;;;12.50;10.00;;;;;;;;5096346;27;45447;-67
2022/03/28 10:10:58;;;;;;;;;13.75;12.00;;;;;;;;5092430;27;45913;-67
2022/03/28 10:13:26;;;;;;;;;9.50;9.00;;;;;;;;5093306;27;47458;-69
2022/03/28 10:15:51;;;;;;;;;3.00;3.00;;;;;;;;5093272;27;45580;-67
2022/03/28 10:18:17;;;;;;;;;9.00;8.00;;;;;;;;5094096;27;45439;-69
2022/03/28 10:20:44;;;;;;;;;11.50;11.50;;;;;;;;5096044;27;45383;-69
2022/03/28 10:23:12;;;;;;;;;13.00;11.50;;;;;;;;5093488;27;46185;-69
2022/03/28 10:25:38;;;;;;;;;9.75;9.50;;;;;;;;5093133;27;45511;-69
2022/03/28 10:28:03;;;;;;;;;12.00;11.00;;;;;;;;5091331;27;45275;-69
2022/03/28 10:30:30;;;;;;;;;11.50;10.25;;;;;;;;5092861;27;45260;-69
2022/03/28 10:33:11;;;;;;;;;14.25;10.50;;;;;;;;5094168;27;45306;-66
2022/03/28 10:35:37;;;;;;;;;10.00;9.00;;;;;;;;5095722;27;45372;-69
2022/03/28 10:38:16;;;;;;;;;13.00;11.00;;;;;;;;5093735;27;45258;-69
2022/03/28 10:40:59;;;;;;;;;11.50;11.00;;;;;;;;5090658;27;45417;-69
2022/03/28 10:43:26;;;;;;;;;12.50;10.50;;;;;;;;5094157;27;46047;-67
2022/03/28 10:45:55;;;;;;;;;11.25;11.25;;;;;;;;5095733;27;45351;-69
2022/03/28 10:48:42;;;;;;;;;14.75;11.75;;;;;;;;5097407;27;45553;-69
2022/03/28 10:51:08;;;;;;;;;10.00;9.50;;;;;;;;5097953;27;45518;-67
2022/03/28 10:53:39;;;;;;;;;10.75;10.75;;;;;;;;5099056;27;45389;-66
2022/03/28 10:56:25;;;;;;;;;9.50;9.50;;;;;;;;5096672;27;45439;-70
2022/03/28 10:58:53;;;;;;;;;12.25;10.25;;;;;;;;5096004;27;45368;-67
2022/03/28 11:01:20;;;;;;;;;11.25;9.75;;;;;;;;5095217;27;45221;-67
2022/03/28 11:03:47;;;;;;;;;10.00;10.00;;;;;;;;5095005;27;45943;-69
2022/03/28 11:06:13;;;;;;;;;13.00;9.00;;;;;;;;5089968;27;45404;-69
2022/03/28 11:08:40;;;;;;;;;13.50;10.00;;;;;;;;5094468;27;45407;-69
2022/03/28 11:11:12;;;;;;;;;9.25;9.25;;;;;;;;5096332;27;45346;-69
2022/03/28 11:13:37;;;;;;;;;10.00;9.25;;;;;;;;5096211;27;47082;-69
2022/03/28 11:16:02;;;;;;;;;9.00;9.00;;;;;;;;5096052;27;45357;-69
2022/03/28 11:18:29;;;;;;;;;10.25;9.50;;;;;;;;5094322;27;45473;-69
2022/03/28 11:20:54;;;;;;;;;11.00;11.00;;;;;;;;5096770;27;45361;-69
2022/03/28 11:23:20;;;;;;;;;12.75;10.50;;;;;;;;5097635;27;45425;-69
2022/03/28 11:26:06;;;;;;;;;13.25;10.75;;;;;;;;5096417;27;45306;-69
2022/03/28 11:28:34;;;;;;;;;11.00;9.00;;;;;;;;5096444;27;45524;-69
2022/03/28 11:31:01;;;;;;;;;11.00;10.00;;;;;;;;5096319;27;45178;-69
2022/03/28 11:33:29;;;;;;;;;13.50;11.50;;;;;;;;5095075;27;45426;-69
2022/03/28 11:35:55;;;;;;;;;10.25;10.25;;;;;;;;5097368;27;45448;-69
2022/03/28 11:38:22;;;;;;;;;9.75;9.75;;;;;;;;5095998;27;45423;-69
2022/03/28 11:40:48;;;;;;;;;7.25;6.25;;;;;;;;5093752;27;45447;-69
2022/03/28 11:43:13;;;;;;;;;10.00;10.00;;;;;;;;5094182;27;45434;-69
2022/03/28 11:45:45;;;;;;;;;13.50;9.50;;;;;;;;5095989;27;45492;-69
2022/03/28 11:48:10;;;;;;;;;12.50;10.50;;;;;;;;5078829;27;45361;-69
2022/03/28 11:50:36;;;;;;;;;12.00;12.00;;;;;;;;5098154;27;45236;-68
2022/03/28 11:53:01;;;;;;;;;13.00;12.75;;;;;;;;5095462;27;46102;-69
2022/03/28 11:55:27;;;;;;;;;9.25;9.25;;;;;;;;5095068;27;45218;-69
2022/03/28 12:00:38;;;;;;;;;10.75;9.25;;;;;;;;5096244;27;46518;-69
2022/03/28 12:03:04;;;;;;;;;9.00;9.00;;;;;;;;5095593;27;46144;-69
2022/03/28 12:05:30;;;;;;;;;10.75;8.50;;;;;;;;5098055;27;45369;-69
2022/03/28 12:07:56;;;;;;;;;11.25;11.25;;;;;;;;5095704;27;45497;-69
2022/03/28 12:10:22;;;;;;;;;14.75;10.25;;;;;;;;5096446;27;45426;-69
2022/03/28 12:12:48;;;;;;;;;10.00;10.00;;;;;;;;5095504;27;45885;-69
2022/03/28 12:15:22;;;;;;;;;10.75;9.75;;;;;;;;5095845;27;45330;-69
2022/03/28 12:17:51;;;;;;;;;9.50;9.50;;;;;;;;5097547;27;45465;-69
2022/03/28 12:20:16;;;;;;;;;10.25;9.75;;;;;;;;5096268;27;45533;-69
2022/03/28 12:22:45;;;;;;;;;17.25;13.00;;;;;;;;5096811;27;46924;-69
2022/03/28 12:25:21;;;;;;;;;12.75;10.75;;;;;;;;5096604;27;45683;-69
2022/03/28 12:27:50;;;;;;;;;11.25;11.25;;;;;;;;5091775;27;45480;-69
2022/03/28 12:30:15;;;;;;;;;10.50;8.75;;;;;;;;5095532;27;45229;-69
2022/03/28 12:32:43;;;;;;;;;8.75;8.00;;;;;;;;5097951;27;45204;-69
2022/03/28 12:35:09;;;;;;;;;10.25;9.25;;;;;;;;5095861;27;45299;-69
2022/03/28 12:37:35;;;;;;;;;10.75;10.50;;;;;;;;5095085;27;45430;-68
2022/03/28 12:40:00;;;;;;;;;11.00;9.00;;;;;;;;5095203;27;45446;-69
2022/03/28 12:42:26;;;;;;;;;9.75;9.00;;;;;;;;5094811;27;45393;-69
2022/03/28 12:44:55;;;;;;;;;11.50;9.00;;;;;;;;5095809;27;45565;-69
2022/03/28 12:47:20;;;;;;;;;12.00;11.00;;;;;;;;5096913;27;46736;-69
2022/03/28 12:49:46;;;;;;;;;13.00;11.00;;;;;;;;5095340;27;45619;-68
2022/03/28 12:52:14;;;;;;;;;12.00;10.00;;;;;;;;5095251;27;46025;-69
2022/03/28 12:54:40;;;;;;;;;10.75;10.50;;;;;;;;5093571;27;45356;-69
2022/03/28 12:57:05;;;;;;;;;10.25;9.00;;;;;;;;5096179;27;45290;-69
2022/03/28 12:59:32;;;;;;;;;10.00;9.25;;;;;;;;5097245;27;45263;-68
2022/03/28 13:02:08;;;;;;;;;12.50;10.00;;;;;;;;5092621;27;46276;-68
2022/03/28 13:04:42;;;;;;;;;13.50;10.00;;;;;;;;5094430;27;45441;-69
2022/03/28 13:07:07;;;;;;;;;10.50;10.50;;;;;;;;5095593;27;45251;-69
2022/03/28 13:09:32;;;;;;;;;12.00;10.25;;;;;;;;5094726;27;45492;-69
2022/03/28 13:12:08;;;;;;;;;10.00;10.00;;;;;;;;5095832;27;46274;-69
2022/03/28 13:14:33;;;;;;;;;13.75;12.00;;;;;;;;5094993;27;45330;-68
2022/03/28 13:17:12;;;;;;;;;7.75;7.00;;;;;;;;5093720;27;45370;-69
2022/03/28 13:19:38;;;;;;;;;11.00;10.25;;;;;;;;5091669;27;45494;-70
2022/03/28 13:22:07;;;;;;;;;12.75;9.75;;;;;;;;5094555;27;45424;-69
2022/03/28 13:24:33;;;;;;;;;12.75;11.00;;;;;;;;5095654;27;45609;-69
2022/03/28 13:29:53;;;;;;;;;11.50;9.50;;;;;;;;5092666;27;45224;-69
2022/03/28 13:32:18;;;;;;;;;11.00;11.00;;;;;;;;5095905;27;46105;-69
2022/03/28 13:34:44;;;;;;;;;18.50;10.00;;;;;;;;5094041;27;45491;-69
2022/03/28 13:37:10;;;;;;;;;12.50;11.25;;;;;;;;5076757;27;45394;-69
2022/03/28 13:39:35;;;;;;;;;9.75;8.75;;;;;;;;5094317;27;45335;-69
2022/03/28 13:42:01;;;;;;;;;8.75;8.75;;;;;;;;5094957;27;46303;-69
2022/03/28 13:44:26;;;;;;;;;9.50;9.50;;;;;;;;5094788;27;45342;-69
2022/03/28 13:46:51;;;;;;;;;9.00;9.00;;;;;;;;5094586;27;45424;-69
2022/03/28 13:49:17;;;;;;;;;10.25;10.25;;;;;;;;5095074;27;45362;-69
2022/03/28 13:51:42;;;;;;;;;12.25;11.00;;;;;;;;5094275;27;45901;-69
2022/03/28 13:54:07;;;;;;;;;10.50;10.25;;;;;;;;5092690;27;45271;-69
2022/03/28 13:56:32;;;;;;;;;11.50;10.50;;;;;;;;5096022;27;45270;-69
2022/03/28 13:58:58;;;;;;;;;8.67;8.67;;;;;;;;5092040;27;45346;-70
2022/03/28 14:01:27;;;;;;;;;13.25;10.00;;;;;;;;5093955;27;47288;-69
2022/03/28 14:03:53;;;;;;;;;13.00;10.50;;;;;;;;5092291;27;45581;-69
2022/03/28 14:06:19;;;;;;;;;9.25;9.25;;;;;;;;5093909;27;45438;-68
2022/03/28 14:08:44;;;;;;;;;13.50;9.50;;;;;;;;5095844;27;45431;-69
2022/03/28 14:11:10;;;;;;;;;6.25;6.25;;;;;;;;5094316;27;45416;-69
2022/03/28 14:13:35;;;;;;;;;12.00;10.75;;;;;;;;5093323;27;45532;-69
2022/03/28 14:16:00;;;;;;;;;9.50;8.50;;;;;;;;5092032;27;45291;-69
2022/03/28 14:18:26;;;;;;;;;11.50;10.50;;;;;;;;5086069;27;45615;-69
2022/03/28 14:20:52;;;;;;;;;13.25;10.75;;;;;;;;5094592;27;46533;-69
2022/03/28 14:23:17;;;;;;;;;13.50;10.25;;;;;;;;5095385;27;45384;-69
2022/03/28 14:25:43;;;;;;;;;9.00;9.00;;;;;;;;5093965;27;45499;-69
2022/03/28 14:28:08;;;;;;;;;10.00;8.75;;;;;;;;5092807;27;45339;-69